Time;durP1;ratioP1;P1;durP2;ratioP2;P2;SDS_P1;SDS_P2;PMS_P1;PMS_P2;Temp;Humidity;BMP_temperature;BMP_pressure;BME280_temperature;BME280_humidity;BME280_pressure;Samples;Min_cycle;Max_cycle;Signal;HPM_P1;HPM_P2
2023/04/07 00:00:26;;;;;;;15.77;11.43;;;;;;;1.09;92.53;92831.06;5041090;28;20045;-70
2023/04/07 00:02:53;;;;;;;14.95;11.73;;;;;;;0.82;93.86;92795.09;5045544;28;20536;-70
2023/04/07 00:05:20;;;;;;;16.08;11.70;;;;;;;1.08;94.50;92829.50;5047863;28;20052;-70
2023/04/07 00:07:47;;;;;;;15.98;12.10;;;;;;;1.05;93.97;92833.94;5029273;28;20521;-72
2023/04/07 00:10:13;;;;;;;15.02;11.15;;;;;;;0.99;94.02;92821.13;5027583;28;20453;-70
2023/04/07 00:12:41;;;;;;;13.73;10.52;;;;;;;1.08;93.70;92835.38;5027419;28;20049;-69
2023/04/07 00:15:09;;;;;;;12.90;9.95;;;;;;;1.05;93.07;92818.78;5027351;28;20049;-69
2023/04/07 00:17:36;;;;;;;17.10;11.57;;;;;;;1.14;93.46;92827.13;5027265;28;20053;-69
2023/04/07 00:20:03;;;;;;;16.75;12.15;;;;;;;1.16;93.17;92830.28;5030784;28;20040;-70
2023/04/07 00:22:29;;;;;;;16.33;12.20;;;;;;;1.20;93.79;92823.94;5047214;28;20037;-70
2023/04/07 00:24:56;;;;;;;15.30;11.88;;;;;;;1.19;93.12;92817.31;5047039;28;20076;-70
2023/04/07 00:27:23;;;;;;;16.13;12.05;;;;;;;1.24;93.80;92821.09;5047446;28;20110;-70
2023/04/07 00:29:53;;;;;;;15.57;11.65;;;;;;;1.23;94.42;92820.31;5044877;28;20105;-70
2023/04/07 00:32:20;;;;;;;16.58;11.43;;;;;;;1.17;94.42;92815.91;5027667;28;20153;-70
2023/04/07 00:34:47;;;;;;;14.23;11.60;;;;;;;1.16;94.49;92810.03;5027336;28;20135;-69
2023/04/07 00:37:14;;;;;;;16.50;11.20;;;;;;;1.06;93.23;92804.38;5027691;28;20042;-70
2023/04/07 00:39:40;;;;;;;14.52;11.23;;;;;;;1.15;94.34;92821.09;5027227;28;20045;-70
2023/04/07 00:42:07;;;;;;;14.45;11.30;;;;;;;1.15;94.75;92821.09;5027511;28;20038;-70
2023/04/07 00:44:34;;;;;;;15.35;11.70;;;;;;;1.14;95.14;92822.06;5027017;28;20445;-70
2023/04/07 00:47:02;;;;;;;16.75;12.27;;;;;;;1.09;94.94;92820.97;5032315;28;20090;-70
2023/04/07 00:49:30;;;;;;;20.27;15.80;;;;;;;1.09;95.70;92821.75;5051560;28;20095;-70
2023/04/07 00:51:58;;;;;;;21.40;14.50;;;;;;;1.03;96.55;92823.19;5050854;28;20094;-70
2023/04/07 00:54:25;;;;;;;17.58;13.25;;;;;;;1.06;95.52;92820.34;5051176;28;20122;-70
2023/04/07 00:56:52;;;;;;;17.67;14.00;;;;;;;1.08;95.38;92822.72;5050866;28;20083;-70
2023/04/07 00:59:20;;;;;;;23.55;15.18;;;;;;;1.04;95.31;92823.97;5030997;28;20100;-70
2023/04/07 01:01:55;;;;;;;35.80;18.90;;;;;;;1.01;94.92;92820.03;5031362;28;20049;-70
2023/04/07 01:04:30;;;;;;;32.72;18.48;;;;;;;0.99;94.40;92821.94;5031356;28;20087;-70
2023/04/07 01:07:05;;;;;;;35.15;18.60;;;;;;;0.90;94.12;92805.19;5030656;28;20505;-70
2023/04/07 01:09:38;;;;;;;32.05;17.52;;;;;;;1.00;92.96;92815.94;5033478;28;20469;-70
2023/04/07 01:12:10;;;;;;;34.20;17.85;;;;;;;0.99;92.54;92816.09;5031489;28;20041;-69
2023/04/07 01:14:42;;;;;;;26.70;16.38;;;;;;;0.91;92.12;92807.56;5050827;28;20080;-70
2023/04/07 01:17:10;;;;;;;27.67;16.90;;;;;;;0.91;91.94;92805.03;5050606;28;20045;-69
2023/04/07 01:19:43;;;;;;;27.40;17.98;;;;;;;0.88;93.31;92807.88;5043250;28;20126;-70
2023/04/07 01:22:13;;;;;;;26.15;15.70;;;;;;;0.85;93.45;92803.16;5030568;28;20041;-70
2023/04/07 01:25:05;;;;;;;21.20;14.73;;;;;;;0.99;93.88;92818.63;5043308;28;20044;-70
2023/04/07 01:27:38;;;;;;;19.27;13.02;;;;;;;0.95;93.99;92813.09;5050533;28;20452;-70
2023/04/07 01:30:10;;;;;;;19.95;12.95;;;;;;;0.93;94.30;92802.34;5050393;28;20091;-70
2023/04/07 01:32:39;;;;;;;17.00;11.77;;;;;;;0.86;93.27;92808.97;5050453;28;20456;-70
2023/04/07 01:35:10;;;;;;;12.48;10.18;;;;;;;0.84;93.62;92805.84;5050281;28;20045;-70
2023/04/07 01:37:38;;;;;;;15.95;12.40;;;;;;;0.84;93.54;92803.31;5050698;28;20147;-70
2023/04/07 01:40:08;;;;;;;15.73;12.00;;;;;;;0.86;92.35;92807.25;5050478;28;20114;-70
2023/04/07 01:42:36;;;;;;;16.15;11.27;;;;;;;0.90;93.43;92802.66;5049905;28;20446;-70
2023/04/07 01:45:04;;;;;;;14.95;11.77;;;;;;;0.90;93.38;92805.19;5050237;28;20558;-70
2023/04/07 01:47:33;;;;;;;18.80;12.98;;;;;;;0.93;92.57;92800.59;5050358;28;20447;-70
2023/04/07 01:50:04;;;;;;;23.15;15.75;;;;;;;0.99;92.12;92803.44;5034856;28;20052;-70
2023/04/07 01:52:31;;;;;;;26.20;16.65;;;;;;;0.98;92.12;92791.75;5030349;28;20049;-70
2023/04/07 01:54:58;;;;;;;23.45;15.93;;;;;;;0.95;91.56;92792.06;5045502;28;20099;-70
2023/04/07 01:57:25;;;;;;;17.65;12.23;;;;;;;0.93;91.47;92795.53;5040851;28;20880;-71
2023/04/07 01:59:51;;;;;;;17.70;11.80;;;;;;;0.90;91.49;92783.22;5049342;28;20091;-70
2023/04/07 02:02:18;;;;;;;16.55;11.40;;;;;;;0.90;90.71;92790.03;5049391;28;20044;-70
2023/04/07 02:04:54;;;;;;;15.30;10.85;;;;;;;0.89;89.45;92789.22;5049877;28;20090;-70
2023/04/07 02:07:29;;;;;;;16.92;12.05;;;;;;;0.96;91.13;92788.59;5050108;28;20106;-70
2023/04/07 02:09:58;;;;;;;21.15;14.45;;;;;;;0.96;90.60;92791.91;5049235;28;20056;-70
2023/04/07 02:12:28;;;;;;;23.58;14.95;;;;;;;0.91;90.76;92784.81;5049970;28;20045;-70
2023/04/07 02:14:56;;;;;;;21.88;14.77;;;;;;;0.93;91.06;92787.19;5049043;28;20449;-70
2023/04/07 02:17:25;;;;;;;24.00;15.13;;;;;;;0.93;91.62;92792.25;5049789;28;20054;-71
2023/04/07 02:19:56;;;;;;;24.80;15.43;;;;;;;0.91;90.10;92787.34;5049596;28;20051;-70
2023/04/07 02:22:22;;;;;;;22.38;14.10;;;;;;;0.94;90.77;92783.69;5049954;28;20045;-71
2023/04/07 02:24:49;;;;;;;20.45;14.40;;;;;;;0.90;91.19;92778.19;5049065;28;20182;-71
2023/04/07 02:27:17;;;;;;;24.45;16.30;;;;;;;0.99;92.71;92786.53;5049569;28;20095;-69
2023/04/07 02:29:43;;;;;;;21.83;14.25;;;;;;;1.01;91.98;92786.34;5049477;28;20048;-71
2023/04/07 02:32:10;;;;;;;23.98;15.43;;;;;;;0.99;91.81;92788.25;5049161;28;20493;-71
2023/04/07 02:34:37;;;;;;;26.85;17.15;;;;;;;0.97;91.86;92785.88;5048819;28;20063;-71
2023/04/07 02:37:05;;;;;;;24.58;15.60;;;;;;;0.99;91.41;92778.16;5049476;28;20049;-70
2023/04/07 02:39:32;;;;;;;21.92;15.57;;;;;;;0.98;91.01;92784.97;5048679;28;20047;-70
2023/04/07 02:41:58;;;;;;;17.52;13.55;;;;;;;1.02;90.20;92788.72;5049148;28;20053;-70
2023/04/07 02:44:25;;;;;;;19.73;14.18;;;;;;;1.02;91.08;92788.72;5049038;28;20033;-70
2023/04/07 02:46:52;;;;;;;22.38;15.10;;;;;;;1.02;89.93;92787.94;5049073;28;20563;-70
2023/04/07 02:49:18;;;;;;;20.05;14.43;;;;;;;1.05;90.67;92790.16;5048881;28;20053;-70
2023/04/07 02:51:46;;;;;;;20.60;14.75;;;;;;;1.05;90.97;92793.47;5049141;28;20107;-70
2023/04/07 02:54:14;;;;;;;23.75;14.73;;;;;;;1.03;91.11;92792.81;5048604;28;20532;-71
2023/04/07 02:56:41;;;;;;;21.23;13.80;;;;;;;1.02;91.41;92790.47;5049122;28;20436;-71
2023/04/07 02:59:07;;;;;;;18.80;13.48;;;;;;;1.05;89.90;92800.25;5048975;28;20044;-71
2023/04/07 03:01:35;;;;;;;16.95;11.90;;;;;;;1.02;90.46;92793.78;5048884;28;20049;-70
2023/04/07 03:04:01;;;;;;;16.33;12.07;;;;;;;1.05;89.82;92803.59;5048586;28;20041;-70
2023/04/07 03:06:28;;;;;;;15.57;11.02;;;;;;;1.11;90.87;92797.09;5048950;28;20049;-70
2023/04/07 03:08:55;;;;;;;15.20;11.02;;;;;;;1.15;89.50;92802.63;5047925;28;20090;-70
2023/04/07 03:11:23;;;;;;;13.70;10.65;;;;;;;1.01;88.50;92782.09;5048505;28;20041;-69
2023/04/07 03:13:50;;;;;;;14.88;10.85;;;;;;;1.14;87.71;92799.31;5049214;28;20406;-69
2023/04/07 03:16:17;;;;;;;13.15;10.20;;;;;;;1.14;86.65;92806.88;5048988;28;20049;-70
2023/04/07 03:18:44;;;;;;;14.43;10.57;;;;;;;1.11;86.39;92806.44;5048470;28;20045;-70
2023/04/07 03:21:10;;;;;;;13.30;10.00;;;;;;;1.11;87.25;92804.66;5048320;28;20452;-70
2023/04/07 03:23:37;;;;;;;13.52;10.32;;;;;;;1.11;86.44;92798.84;5048028;28;20095;-69
2023/04/07 03:26:04;;;;;;;21.25;15.38;;;;;;;0.92;86.52;92783.06;5048080;28;20057;-69
2023/04/07 03:28:32;;;;;;;21.65;14.77;;;;;;;0.98;87.34;92787.50;5048068;28;20045;-69
2023/04/07 03:30:59;;;;;;;18.90;12.70;;;;;;;1.11;88.16;92803.91;5048179;28;20110;-69
2023/04/07 03:33:25;;;;;;;24.20;14.43;;;;;;;1.07;87.85;92798.38;5048227;28;20095;-69
2023/04/07 03:35:52;;;;;;;22.02;14.75;;;;;;;1.07;88.66;92803.44;5048140;28;20183;-70
2023/04/07 03:38:20;;;;;;;22.50;14.60;;;;;;;1.05;87.13;92811.19;5047438;28;20099;-70
2023/04/07 03:40:47;;;;;;;35.88;19.10;;;;;;;0.50;86.87;92716.59;5048441;28;20045;-70
2023/04/07 03:43:14;;;;;;;32.92;19.23;;;;;;;1.02;87.83;92806.44;5048529;28;20448;-70
2023/04/07 03:45:42;;;;;;;27.30;18.13;;;;;;;1.01;86.83;92807.38;5048388;28;20102;-70
2023/04/07 03:48:10;;;;;;;32.63;21.15;;;;;;;0.86;87.68;92783.69;5048307;28;20049;-70
2023/04/07 03:50:37;;;;;;;24.33;16.75;;;;;;;0.95;86.64;92804.69;5048178;28;20048;-70
2023/04/07 03:53:04;;;;;;;30.73;21.30;;;;;;;0.91;87.00;92812.63;5047559;28;20048;-70
2023/04/07 03:55:31;;;;;;;35.33;22.52;;;;;;;0.86;87.49;92811.50;5047763;28;20094;-70
2023/04/07 03:57:58;;;;;;;36.35;20.75;;;;;;;0.79;87.23;92803.78;5047931;28;20048;-69
2023/04/07 04:00:25;;;;;;;37.15;22.05;;;;;;;0.78;87.07;92807.25;5047659;28;20044;-69
2023/04/07 04:02:53;;;;;;;24.95;15.98;;;;;;;0.80;88.60;92810.44;5047794;28;20060;-69
2023/04/07 04:05:20;;;;;;;19.20;12.63;;;;;;;0.79;87.97;92816.44;5047475;28;20111;-72
2023/04/07 04:07:47;;;;;;;24.42;13.35;;;;;;;0.76;88.78;92817.53;5047917;28;20120;-70
2023/04/07 04:10:15;;;;;;;17.77;12.43;;;;;;;0.76;87.68;92816.75;5047373;28;20091;-69
2023/04/07 04:12:41;;;;;;;21.27;13.70;;;;;;;0.75;87.69;92815.16;5047866;28;20509;-69
2023/04/07 04:15:09;;;;;;;19.02;13.80;;;;;;;0.69;88.35;92814.06;5047024;28;20501;-69
2023/04/07 04:17:36;;;;;;;17.92;13.32;;;;;;;0.74;89.63;92816.91;5047174;28;20559;-69
2023/04/07 04:20:05;;;;;;;24.00;14.52;;;;;;;0.74;89.28;92819.41;5046807;28;20052;-70
2023/04/07 04:22:32;;;;;;;24.20;15.32;;;;;;;0.74;90.62;92821.19;5047182;28;20052;-70
2023/04/07 04:24:59;;;;;;;24.23;14.98;;;;;;;0.78;89.42;92823.22;5047161;28;20098;-69
2023/04/07 04:27:26;;;;;;;27.48;16.50;;;;;;;0.82;89.43;92820.38;5047471;28;20099;-70
2023/04/07 04:29:52;;;;;;;22.55;16.23;;;;;;;0.74;89.61;92818.66;5046783;28;20098;-70
2023/04/07 04:32:20;;;;;;;27.98;17.08;;;;;;;0.80;90.28;92828.13;5047649;28;20049;-70
2023/04/07 04:34:46;;;;;;;23.02;16.75;;;;;;;0.75;88.88;92826.06;5046527;28;20045;-71
2023/04/07 04:37:15;;;;;;;26.70;16.65;;;;;;;0.81;89.08;92827.16;5047323;28;20083;-70
2023/04/07 04:39:41;;;;;;;24.20;15.48;;;;;;;0.75;88.86;92826.06;5047396;28;20069;-70
2023/04/07 04:42:08;;;;;;;21.60;14.07;;;;;;;0.79;89.30;92827.31;5046983;28;20099;-70
2023/04/07 04:44:35;;;;;;;19.95;13.30;;;;;;;0.82;88.86;92823.69;5047060;28;20385;-70
2023/04/07 04:47:02;;;;;;;21.65;15.43;;;;;;;0.79;88.11;92829.84;5047268;28;20049;-70
2023/04/07 04:49:28;;;;;;;23.27;14.63;;;;;;;0.83;87.46;92832.06;5047009;28;20382;-70
2023/04/07 04:51:55;;;;;;;26.23;16.25;;;;;;;0.74;86.70;92823.72;5047238;28;20045;-70
2023/04/07 04:54:23;;;;;;;22.27;15.20;;;;;;;0.91;88.11;92834.59;5047302;28;20045;-70
2023/04/07 04:56:50;;;;;;;21.80;15.98;;;;;;;0.94;87.91;92839.34;5047265;28;20114;-70
2023/04/07 04:59:17;;;;;;;23.52;15.02;;;;;;;0.93;86.53;92838.53;5047267;28;20044;-69
2023/04/07 05:01:43;;;;;;;24.52;14.93;;;;;;;0.93;87.46;92836.00;5047279;28;20045;-70
2023/04/07 05:04:10;;;;;;;23.92;13.70;;;;;;;0.93;87.47;92842.81;5046511;28;20041;-70
2023/04/07 05:06:37;;;;;;;20.02;14.23;;;;;;;0.91;88.07;92840.44;5046859;28;20114;-70
2023/04/07 05:09:03;;;;;;;27.35;14.75;;;;;;;0.96;88.64;92839.94;5046951;28;20045;-70
2023/04/07 05:11:32;;;;;;;24.77;13.75;;;;;;;0.97;88.64;92843.28;5046628;28;20079;-70
2023/04/07 05:13:58;;;;;;;22.10;13.93;;;;;;;1.00;88.58;92846.28;5046546;28;20041;-69
2023/04/07 05:16:25;;;;;;;20.10;13.23;;;;;;;1.06;88.75;92845.63;5046871;28;20060;-69
2023/04/07 05:18:52;;;;;;;25.08;17.15;;;;;;;1.04;88.66;92851.81;5046306;28;20053;-69
2023/04/07 05:21:19;;;;;;;27.40;16.27;;;;;;;1.12;88.85;92856.88;5046682;28;20049;-69
2023/04/07 05:23:45;;;;;;;24.38;14.52;;;;;;;1.20;89.15;92858.56;5046841;28;20053;-69
2023/04/07 05:26:12;;;;;;;24.45;14.63;;;;;;;1.24;89.25;92859.06;5046826;28;20053;-69
2023/04/07 05:28:40;;;;;;;27.52;16.80;;;;;;;1.32;90.44;92862.38;5046938;28;20106;-69
2023/04/07 05:31:07;;;;;;;30.02;18.25;;;;;;;1.41;89.67;92867.38;5046784;28;20412;-69
2023/04/07 05:33:34;;;;;;;26.63;16.42;;;;;;;1.41;89.54;92860.59;5048795;28;20045;-69
2023/04/07 05:36:00;;;;;;;32.30;16.63;;;;;;;1.48;88.47;92858.19;5050435;28;20053;-69
2023/04/07 05:38:27;;;;;;;25.85;15.60;;;;;;;1.58;88.65;92860.56;5050630;28;20531;-69
2023/04/07 05:40:54;;;;;;;25.92;15.77;;;;;;;1.65;88.33;92864.00;5034259;28;20099;-70
2023/04/07 05:43:21;;;;;;;35.13;20.92;;;;;;;1.79;87.65;92865.06;5050606;28;20048;-69
2023/04/07 05:45:49;;;;;;;27.33;16.73;;;;;;;1.86;86.30;92862.69;5050066;28;20050;-69
2023/04/07 05:48:16;;;;;;;18.48;13.70;;;;;;;1.93;85.51;92858.53;5049787;28;20072;-69
2023/04/07 05:50:43;;;;;;;22.05;14.32;;;;;;;1.99;85.97;92862.91;5050127;28;20041;-69
2023/04/07 05:53:09;;;;;;;22.05;13.23;;;;;;;2.06;83.51;92855.44;5050141;28;20045;-69
2023/04/07 05:55:36;;;;;;;18.17;12.00;;;;;;;2.19;82.73;92859.97;5049845;28;20041;-69
2023/04/07 05:58:04;;;;;;;18.25;10.35;;;;;;;2.30;80.61;92863.88;5049886;28;20090;-69
2023/04/07 06:00:30;;;;;;;13.60;9.57;;;;;;;2.39;79.82;92859.53;5049938;28;20049;-69
2023/04/07 06:02:58;;;;;;;14.60;9.27;;;;;;;2.46;77.15;92862.97;5049344;28;20074;-69
2023/04/07 06:05:26;;;;;;;12.43;9.13;;;;;;;2.52;77.11;92861.53;5049953;28;20102;-70
2023/04/07 06:07:53;;;;;;;11.57;8.05;;;;;;;2.64;76.92;92855.09;5049837;28;20098;-69
2023/04/07 06:10:20;;;;;;;19.83;13.95;;;;;;;2.72;73.99;92863.63;5049856;28;20478;-69
2023/04/07 06:12:46;;;;;;;16.58;11.02;;;;;;;2.83;74.80;92864.97;5049456;28;20410;-69
2023/04/07 06:15:13;;;;;;;15.43;10.20;;;;;;;2.92;75.45;92864.72;5036238;28;20115;-69
2023/04/07 06:17:40;;;;;;;14.85;9.07;;;;;;;3.02;74.27;92856.84;5049162;28;20053;-69
2023/04/07 06:20:09;;;;;;;15.90;9.10;;;;;;;3.12;73.94;92858.38;5048989;28;20472;-69
2023/04/07 06:22:35;;;;;;;14.63;8.05;;;;;;;3.13;73.54;92850.59;5049459;28;20053;-69
2023/04/07 06:25:02;;;;;;;10.30;7.78;;;;;;;3.28;73.31;92858.22;5049274;28;20045;-69
2023/04/07 06:27:29;;;;;;;13.98;7.95;;;;;;;3.44;72.54;92859.03;5049540;28;20041;-69
2023/04/07 06:29:56;;;;;;;9.68;6.72;;;;;;;3.59;72.50;92862.38;5049248;28;20056;-69
2023/04/07 06:32:24;;;;;;;8.45;6.47;;;;;;;3.65;71.07;92865.19;5049322;28;20045;-69
2023/04/07 06:34:50;;;;;;;14.38;8.95;;;;;;;3.76;70.82;92864.72;5049143;28;20048;-69
2023/04/07 06:37:19;;;;;;;10.95;7.88;;;;;;;3.93;71.05;92857.69;5049294;28;20102;-69
2023/04/07 06:39:46;;;;;;;12.60;8.35;;;;;;;4.12;69.65;92860.66;5049566;28;20045;-69
2023/04/07 06:42:12;;;;;;;11.00;7.97;;;;;;;4.30;68.87;92867.09;5049276;28;20048;-69
2023/04/07 06:44:39;;;;;;;14.23;7.80;;;;;;;4.67;66.89;92866.09;5046318;28;20505;-69
2023/04/07 06:47:06;;;;;;;29.60;14.93;;;;;;;5.00;65.13;92869.91;5048735;28;20045;-69
2023/04/07 06:49:32;;;;;;;15.40;8.73;;;;;;;5.10;63.23;92868.81;5048794;28;20126;-69
2023/04/07 06:51:59;;;;;;;11.73;7.82;;;;;;;5.19;63.75;92871.03;5049581;28;20091;-69
2023/04/07 06:54:27;;;;;;;13.48;8.50;;;;;;;5.29;63.42;92867.38;5048557;28;20044;-69
2023/04/07 06:56:55;;;;;;;9.80;6.85;;;;;;;5.23;62.75;92868.88;5049202;28;20092;-69
2023/04/07 06:59:22;;;;;;;10.68;6.97;;;;;;;5.20;63.70;92862.41;5048380;28;20087;-69
2023/04/07 07:01:49;;;;;;;10.30;6.35;;;;;;;4.99;63.79;92860.69;5048665;28;20040;-69
2023/04/07 07:04:16;;;;;;;9.05;6.40;;;;;;;5.01;62.71;92866.41;5048516;28;20144;-69
2023/04/07 07:06:42;;;;;;;9.77;6.82;;;;;;;5.12;63.67;92872.75;5048919;28;20049;-69
2023/04/07 07:09:09;;;;;;;10.50;7.25;;;;;;;5.05;61.92;92877.00;5048337;28;20041;-69
2023/04/07 07:11:37;;;;;;;9.82;7.05;;;;;;;5.12;62.32;92877.03;5048599;28;20118;-69
2023/04/07 07:14:04;;;;;;;12.32;9.10;;;;;;;5.22;63.61;92877.50;5048168;28;20493;-70
2023/04/07 07:16:30;;;;;;;9.75;7.65;;;;;;;5.17;62.06;92877.28;5048239;28;20053;-69
2023/04/07 07:18:57;;;;;;;12.38;7.88;;;;;;;5.03;61.15;92878.91;5048452;28;20044;-69
2023/04/07 07:21:24;;;;;;;11.60;7.55;;;;;;;5.03;61.96;92884.00;5048422;28;20045;-69
2023/04/07 07:23:51;;;;;;;11.32;7.28;;;;;;;5.06;63.00;92876.78;5045775;28;20556;-69
2023/04/07 07:26:18;;;;;;;10.88;7.13;;;;;;;5.15;62.31;92879.22;5047933;28;20049;-69
2023/04/07 07:28:46;;;;;;;9.45;6.40;;;;;;;5.18;62.07;92882.19;5048036;28;20116;-69
2023/04/07 07:31:14;;;;;;;9.95;6.68;;;;;;;5.24;62.57;92885.78;5044438;28;20095;-69
2023/04/07 07:33:42;;;;;;;13.43;7.60;;;;;;;5.32;62.46;92883.06;5047423;28;20045;-69
2023/04/07 07:36:10;;;;;;;11.40;7.60;;;;;;;5.32;63.38;92875.44;5042233;28;20235;-69
2023/04/07 07:38:36;;;;;;;10.55;7.22;;;;;;;5.45;63.53;92892.56;5047791;28;20051;-69
2023/04/07 07:41:03;;;;;;;8.50;6.80;;;;;;;5.52;62.64;92889.28;5047946;28;20045;-70
2023/04/07 07:43:30;;;;;;;8.80;6.82;;;;;;;5.57;61.55;92892.84;5047648;28;20090;-70
2023/04/07 07:45:58;;;;;;;12.07;7.10;;;;;;;5.67;61.69;92889.97;5047954;28;20095;-70
2023/04/07 07:48:25;;;;;;;14.85;6.72;;;;;;;5.91;63.17;92885.38;5048191;28;20111;-70
2023/04/07 07:50:52;;;;;;;9.55;6.45;;;;;;;6.09;62.05;92868.81;5047388;28;20517;-70
2023/04/07 07:53:19;;;;;;;9.38;6.80;;;;;;;6.43;56.59;92886.78;5047487;28;20060;-69
2023/04/07 07:55:46;;;;;;;9.93;6.63;;;;;;;6.61;58.72;92889.59;5047231;28;20106;-70
2023/04/07 07:58:13;;;;;;;9.20;6.65;;;;;;;6.91;58.09;92888.47;5047283;28;20044;-70
2023/04/07 08:00:40;;;;;;;8.85;5.90;;;;;;;7.19;58.88;92890.06;5047519;28;20053;-70
2023/04/07 08:03:08;;;;;;;9.23;6.60;;;;;;;7.46;55.57;92883.16;5047148;28;20087;-70
2023/04/07 08:05:35;;;;;;;8.38;6.00;;;;;;;7.60;56.71;92878.81;5047163;28;20480;-70
2023/04/07 08:08:02;;;;;;;9.77;5.88;;;;;;;7.82;54.08;92888.03;5047676;28;20102;-69
2023/04/07 08:10:29;;;;;;;8.95;6.20;;;;;;;7.92;55.02;92895.28;5047664;28;20045;-69
2023/04/07 08:12:55;;;;;;;8.57;5.90;;;;;;;7.84;53.72;92886.84;5047026;28;20566;-69
2023/04/07 08:15:22;;;;;;;10.00;6.47;;;;;;;7.69;53.35;92891.41;5046770;28;20099;-69
2023/04/07 08:17:49;;;;;;;9.63;6.85;;;;;;;7.51;54.05;92887.69;5046032;28;20057;-69
2023/04/07 08:20:17;;;;;;;7.82;5.70;;;;;;;7.43;55.00;92888.69;5045639;28;20045;-69
2023/04/07 08:22:44;;;;;;;9.93;6.10;;;;;;;7.02;53.87;92889.66;5047722;28;20468;-69
2023/04/07 08:25:10;;;;;;;10.25;6.00;;;;;;;6.52;54.12;92894.06;5047445;28;20091;-69
2023/04/07 08:27:37;;;;;;;10.02;6.80;;;;;;;6.82;56.72;92883.53;5047019;28;20187;-69
2023/04/07 08:30:06;;;;;;;11.32;6.43;;;;;;;7.01;54.70;92870.19;5047535;28;20413;-69
2023/04/07 08:32:36;;;;;;;9.63;6.45;;;;;;;7.01;54.54;92865.09;5047131;28;20045;-70
2023/04/07 08:35:04;;;;;;;10.75;6.45;;;;;;;7.39;55.34;92881.59;5034667;28;20044;-69
2023/04/07 08:37:33;;;;;;;7.72;5.55;;;;;;;7.18;53.10;92886.69;5047181;28;20482;-70
2023/04/07 08:39:59;;;;;;;7.63;5.22;;;;;;;7.17;53.15;92887.69;5047070;28;20095;-70
2023/04/07 08:42:30;;;;;;;9.02;6.63;;;;;;;6.65;53.54;92884.88;5046562;28;20509;-69
2023/04/07 08:44:58;;;;;;;8.57;6.25;;;;;;;6.98;56.63;92881.59;5047543;28;20440;-69
2023/04/07 08:47:26;;;;;;;8.20;5.88;;;;;;;7.27;54.54;92876.31;5047127;28;20572;-69
2023/04/07 08:49:57;;;;;;;9.45;6.25;;;;;;;7.38;55.07;92872.34;5047176;28;20510;-69
2023/04/07 08:52:28;;;;;;;11.57;6.70;;;;;;;7.50;54.65;92880.97;5047279;28;20045;-69
2023/04/07 08:54:57;;;;;;;7.88;6.20;;;;;;;7.67;53.16;92881.38;5047096;28;20099;-70
2023/04/07 08:57:24;;;;;;;9.57;7.35;;;;;;;7.81;54.01;92878.78;5046796;28;20053;-69
2023/04/07 08:59:50;;;;;;;9.50;6.70;;;;;;;7.97;54.11;92877.56;5046969;28;20052;-70
2023/04/07 09:02:19;;;;;;;11.23;7.00;;;;;;;8.00;53.72;92885.63;5046699;28;20130;-69
2023/04/07 09:04:47;;;;;;;11.45;8.23;;;;;;;7.83;52.92;92890.38;5047165;28;20409;-70
2023/04/07 09:07:13;;;;;;;10.82;8.23;;;;;;;7.98;53.88;92884.25;5046798;28;20045;-69
2023/04/07 09:09:41;;;;;;;12.30;8.65;;;;;;;7.96;51.14;92887.00;5051076;28;20057;-70
2023/04/07 09:12:10;;;;;;;11.73;7.72;;;;;;;7.82;50.17;92893.91;5050533;28;20133;-70
2023/04/07 09:14:36;;;;;;;11.07;8.10;;;;;;;6.46;52.69;92896.59;5050559;28;20109;-69
2023/04/07 09:17:03;;;;;;;9.60;7.45;;;;;;;6.46;52.21;92891.50;5050472;28;20044;-69
2023/04/07 09:19:30;;;;;;;10.38;7.97;;;;;;;6.48;52.24;92884.47;5050777;28;20659;-69
2023/04/07 09:21:57;;;;;;;9.68;7.72;;;;;;;6.98;54.95;92888.47;5050468;28;20090;-69
2023/04/07 09:24:25;;;;;;;10.23;7.90;;;;;;;6.46;55.93;92883.84;5050514;28;20053;-69
2023/04/07 09:27:10;;;;;;;10.10;7.10;;;;;;;6.60;53.48;92892.31;5050700;28;20049;-69
2023/04/07 09:29:37;;;;;;;10.85;6.80;;;;;;;6.85;54.40;92890.00;5050729;28;20072;-69
2023/04/07 09:32:04;;;;;;;8.38;6.70;;;;;;;7.35;55.60;92891.41;5050843;28;20048;-69
2023/04/07 09:34:32;;;;;;;10.52;6.50;;;;;;;7.71;53.69;92897.88;5050495;28;20118;-70
2023/04/07 09:37:00;;;;;;;8.88;6.50;;;;;;;7.86;52.20;92896.84;5050424;28;20089;-70
2023/04/07 09:39:27;;;;;;;8.13;6.50;;;;;;;7.35;51.09;92876.88;5050258;28;20048;-69
2023/04/07 09:41:54;;;;;;;9.25;6.07;;;;;;;7.06;53.70;92883.97;5050593;28;20049;-69
2023/04/07 09:44:23;;;;;;;9.10;6.55;;;;;;;7.66;53.60;92892.59;5050219;28;20049;-70
2023/04/07 09:46:50;;;;;;;13.45;6.95;;;;;;;7.67;54.03;92893.34;5044775;28;20045;-70
2023/04/07 09:49:19;;;;;;;11.98;7.13;;;;;;;8.10;53.46;92889.53;5050161;28;20089;-70
2023/04/07 09:51:56;;;;;;;10.65;7.20;;;;;;;8.27;52.71;92889.84;5050059;28;20133;-70
2023/04/07 09:54:34;;;;;;;9.10;7.03;;;;;;;8.40;53.19;92891.56;5049591;28;20537;-70
2023/04/07 09:57:03;;;;;;;15.13;7.68;;;;;;;8.25;51.97;92894.41;5050092;28;20174;-70
2023/04/07 09:59:32;;;;;;;11.82;7.78;;;;;;;8.46;53.31;92893.31;5050607;28;20053;-70
2023/04/07 10:01:59;;;;;;;8.27;6.00;;;;;;;7.87;50.54;92895.91;5049838;28;20474;-70
2023/04/07 10:04:27;;;;;;;10.05;7.05;;;;;;;7.79;52.71;92890.97;5049605;28;20437;-70
2023/04/07 10:06:55;;;;;;;12.63;7.57;;;;;;;8.12;53.66;92873.00;5049530;28;20044;-70
2023/04/07 10:09:23;;;;;;;11.73;7.40;;;;;;;8.40;52.03;92899.25;5049251;28;20095;-70
2023/04/07 10:11:51;;;;;;;12.32;7.65;;;;;;;8.61;51.33;92897.44;5049627;28;20041;-70
2023/04/07 10:14:19;;;;;;;14.48;6.82;;;;;;;8.32;50.38;92881.59;5049224;28;20080;-69
2023/04/07 10:16:48;;;;;;;12.23;7.55;;;;;;;8.67;52.35;92899.94;5049444;28;20147;-69
2023/04/07 10:19:15;;;;;;;9.95;6.38;;;;;;;8.72;49.66;92901.91;5048513;28;20132;-70
2023/04/07 10:21:43;;;;;;;12.40;8.93;;;;;;;8.88;51.65;92897.28;5049278;28;20143;-70
2023/04/07 10:24:24;;;;;;;10.43;7.13;;;;;;;8.95;49.80;92898.00;5049223;28;20583;-70
2023/04/07 10:26:55;;;;;;;9.63;6.32;;;;;;;8.66;51.06;92903.50;5049409;28;20119;-70
2023/04/07 10:29:24;;;;;;;9.43;6.57;;;;;;;7.93;49.56;92899.41;5049879;28;20053;-70
2023/04/07 10:31:52;;;;;;;9.13;6.07;;;;;;;8.06;52.46;92896.81;5049151;28;20091;-70
2023/04/07 10:34:56;;;;;;;8.98;7.38;;;;;;;8.29;54.30;92906.56;5048846;28;20076;-70
2023/04/07 10:37:24;;;;;;;8.73;6.85;;;;;;;8.24;52.34;92868.00;5030684;28;20061;-70
2023/04/07 10:39:52;;;;;;;11.07;7.80;;;;;;;8.66;52.72;92900.16;5035773;28;20040;-69
2023/04/07 10:42:47;;;;;;;10.68;7.65;;;;;;;8.75;51.07;92908.38;5049013;28;20049;-69
2023/04/07 10:45:14;;;;;;;10.70;6.82;;;;;;;8.83;51.63;92910.69;5039860;28;20056;-69
2023/04/07 10:48:13;;;;;;;12.95;8.65;;;;;;;8.68;50.17;92909.22;5049130;28;20041;-69
2023/04/07 10:50:41;;;;;;;9.20;6.65;;;;;;;8.32;49.66;92915.63;5048746;28;20045;-70
2023/04/07 10:53:11;;;;;;;10.88;6.47;;;;;;;8.05;51.76;92912.38;5048778;28;20110;-70
2023/04/07 10:55:39;;;;;;;12.73;8.13;;;;;;;8.26;52.53;92912.13;5048786;28;20095;-70
2023/04/07 10:58:17;;;;;;;19.13;9.93;;;;;;;8.47;52.21;92912.03;5048705;28;20070;-70
2023/04/07 11:01:20;;;;;;;18.95;10.63;;;;;;;8.52;51.03;92907.88;5048895;28;20436;-70
2023/04/07 11:03:58;;;;;;;14.18;9.95;;;;;;;8.61;51.20;92913.56;5048865;28;20047;-70
2023/04/07 11:06:25;;;;;;;13.82;9.60;;;;;;;8.75;51.58;92905.81;5048684;28;20077;-70
2023/04/07 11:08:52;;;;;;;8.15;5.78;;;;;;;8.60;48.65;92913.78;5048983;28;20045;-70
2023/04/07 11:11:37;;;;;;;8.75;6.03;;;;;;;7.93;50.25;92913.00;5048512;28;20560;-70
2023/04/07 11:14:04;;;;;;;44.65;25.45;;;;;;;8.26;53.17;92912.13;5049394;28;20473;-70
2023/04/07 11:16:39;;;;;;;32.33;17.50;;;;;;;8.24;51.40;92915.88;5048446;28;20057;-70
2023/04/07 11:19:07;;;;;;;45.33;24.27;;;;;;;8.35;51.90;92911.88;5034499;28;20220;-70
2023/04/07 11:21:35;;;;;;;17.55;9.45;;;;;;;8.36;50.09;92898.09;5047525;28;20099;-70
2023/04/07 11:24:02;;;;;;;22.95;13.25;;;;;;;8.15;53.43;92916.06;5048576;28;20041;-70
2023/04/07 11:26:30;;;;;;;41.72;24.35;;;;;;;8.38;52.33;92914.81;5048360;28;20045;-70
2023/04/07 11:28:58;;;;;;;168.07;92.47;;;;;;;8.39;51.78;92913.81;5048266;28;21018;-70
2023/04/07 11:31:25;;;;;;;53.85;31.88;;;;;;;8.39;51.85;92901.00;5048115;28;20107;-70
2023/04/07 11:33:54;;;;;;;20.45;13.10;;;;;;;8.53;52.76;92904.34;5048099;28;20079;-70